Time;durP1;ratioP1;P1;durP2;ratioP2;P2;SDS_P1;SDS_P2;PMS_P1;PMS_P2;Temp;Humidity;BMP_temperature;BMP_pressure;BME280_temperature;BME280_humidity;BME280_pressure;Samples;Min_cycle;Max_cycle;Signal;HPM_P1;HPM_P2
2023/03/14 00:00:09;;;;;;;3.97;3.33;;;11.40;99.90;;;;;;4985839;28;20863;-67
2023/03/14 00:02:39;;;;;;;4.17;3.27;;;11.40;99.90;;;;;;4987343;28;20565;-67
2023/03/14 00:05:09;;;;;;;4.07;3.00;;;11.40;99.90;;;;;;4988679;28;21018;-67
2023/03/14 00:07:39;;;;;;;3.43;3.00;;;11.40;99.90;;;;;;4986226;28;20469;-67
2023/03/14 00:10:10;;;;;;;4.10;3.33;;;11.30;99.90;;;;;;4987860;28;20596;-68
2023/03/14 00:12:38;;;;;;;6.93;3.40;;;11.30;99.90;;;;;;4987392;28;21094;-68
2023/03/14 00:15:07;;;;;;;3.70;3.17;;;11.30;99.90;;;;;;4987330;28;20469;-68
2023/03/14 00:17:36;;;;;;;6.97;3.43;;;11.30;99.90;;;;;;4986751;28;20493;-67
2023/03/14 00:20:10;;;;;;;4.40;3.30;;;11.30;99.90;;;;;;4988122;28;20496;-67
2023/03/14 00:22:39;;;;;;;5.20;4.13;;;11.30;99.90;;;;;;4987330;28;20531;-68
2023/03/14 00:25:09;;;;;;;6.87;4.03;;;11.20;99.90;;;;;;4987115;28;20477;-68
2023/03/14 00:27:37;;;;;;;5.93;3.63;;;11.20;99.90;;;;;;4986651;28;20464;-67
2023/03/14 00:30:07;;;;;;;5.27;3.70;;;11.20;99.90;;;;;;4987494;28;20877;-68
2023/03/14 00:32:35;;;;;;;5.00;3.47;;;11.20;99.90;;;;;;4986815;28;20552;-68
2023/03/14 00:35:06;;;;;;;4.93;3.27;;;11.20;99.90;;;;;;4987000;28;20539;-68
2023/03/14 00:37:34;;;;;;;6.40;3.40;;;11.20;99.90;;;;;;4987643;28;20486;-68
2023/03/14 00:40:05;;;;;;;5.57;3.90;;;11.20;99.90;;;;;;4988646;28;21141;-68
2023/03/14 00:42:33;;;;;;;3.97;3.00;;;11.20;99.90;;;;;;4987722;28;20482;-68
2023/03/14 00:45:01;;;;;;;7.70;3.07;;;11.20;99.90;;;;;;4987873;28;20481;-68
2023/03/14 00:47:29;;;;;;;6.97;3.67;;;11.30;99.90;;;;;;4987719;28;20561;-68
2023/03/14 00:49:57;;;;;;;5.37;2.90;;;11.30;99.90;;;;;;4988813;28;20491;-68
2023/03/14 00:52:26;;;;;;;7.80;3.50;;;11.30;99.90;;;;;;4988060;28;20531;-68
2023/03/14 00:54:54;;;;;;;4.90;3.20;;;11.30;99.90;;;;;;4987517;28;20852;-68
2023/03/14 00:57:22;;;;;;;5.50;3.53;;;11.30;99.90;;;;;;4988625;28;20485;-68
2023/03/14 00:59:51;;;;;;;6.13;3.00;;;11.30;99.90;;;;;;4987661;28;20492;-68
2023/03/14 01:02:19;;;;;;;5.73;3.20;;;11.30;99.90;;;;;;4984609;28;20478;-68
2023/03/14 01:04:48;;;;;;;3.47;3.00;;;11.30;99.90;;;;;;4988579;28;20495;-67
2023/03/14 01:07:17;;;;;;;7.37;3.23;;;11.30;99.90;;;;;;4987593;28;20472;-67
2023/03/14 01:09:46;;;;;;;6.00;3.17;;;11.40;99.90;;;;;;4989196;28;20504;-67
2023/03/14 01:12:14;;;;;;;8.60;3.33;;;11.40;99.90;;;;;;4985202;28;20478;-67
2023/03/14 01:14:42;;;;;;;7.67;3.10;;;11.40;99.90;;;;;;4987600;28;20872;-68
2023/03/14 01:17:10;;;;;;;4.83;2.60;;;11.40;99.90;;;;;;4983452;28;20513;-67
2023/03/14 01:19:38;;;;;;;6.63;4.00;;;11.40;99.90;;;;;;4986742;28;20796;-67
2023/03/14 01:22:06;;;;;;;8.43;3.60;;;11.40;99.90;;;;;;4985816;28;20486;-67
2023/03/14 01:24:34;;;;;;;7.17;3.67;;;11.40;99.90;;;;;;4986252;28;20469;-67
2023/03/14 01:27:03;;;;;;;4.93;3.43;;;11.50;99.90;;;;;;4985798;28;20466;-67
2023/03/14 01:29:31;;;;;;;7.37;3.20;;;11.50;99.90;;;;;;4988019;28;20498;-67
2023/03/14 01:31:59;;;;;;;6.10;3.27;;;11.50;99.90;;;;;;4985921;28;20473;-67
2023/03/14 01:34:27;;;;;;;6.40;3.93;;;11.50;99.90;;;;;;4986617;28;20496;-67
2023/03/14 01:36:55;;;;;;;8.77;3.20;;;11.50;99.90;;;;;;4985929;28;20851;-67
2023/03/14 01:39:23;;;;;;;8.77;3.53;;;11.50;99.90;;;;;;4986102;28;20504;-67
2023/03/14 01:41:51;;;;;;;6.90;4.60;;;11.50;99.90;;;;;;4985567;28;20500;-67
2023/03/14 01:44:20;;;;;;;6.00;3.83;;;11.50;99.90;;;;;;4988490;28;20474;-67
2023/03/14 01:46:48;;;;;;;4.03;2.93;;;11.40;99.90;;;;;;4988197;28;20474;-68
2023/03/14 01:49:23;;;;;;;4.30;2.73;;;11.40;99.90;;;;;;4986747;28;21023;-68
2023/03/14 01:51:57;;;;;;;5.70;3.60;;;11.40;99.90;;;;;;4987791;28;20504;-67
2023/03/14 01:54:30;;;;;;;4.23;3.37;;;11.40;99.90;;;;;;4988851;28;20477;-67
2023/03/14 01:57:03;;;;;;;5.83;2.87;;;11.40;99.90;;;;;;4986867;28;20487;-67
2023/03/14 01:59:35;;;;;;;4.40;3.20;;;11.40;99.90;;;;;;4987152;28;20485;-68
2023/03/14 02:02:07;;;;;;;6.50;3.33;;;11.30;99.90;;;;;;4984032;28;20484;-68
2023/03/14 02:04:37;;;;;;;4.57;3.87;;;11.30;99.90;;;;;;4987525;28;20473;-67
2023/03/14 02:07:09;;;;;;;5.63;3.03;;;11.30;99.90;;;;;;4987507;28;20478;-67
2023/03/14 02:09:39;;;;;;;4.37;3.20;;;11.30;99.90;;;;;;4985308;28;20490;-67
2023/03/14 02:12:09;;;;;;;10.70;3.83;;;11.30;99.90;;;;;;4985196;28;20460;-68
2023/03/14 02:14:40;;;;;;;3.90;3.10;;;11.30;99.90;;;;;;4986198;28;20481;-68
2023/03/14 02:17:08;;;;;;;5.73;3.63;;;11.30;99.90;;;;;;4987050;28;20480;-67
2023/03/14 02:19:58;;;;;;;4.30;3.33;;;11.30;99.90;;;;;;4986571;28;20502;-67
2023/03/14 02:22:26;;;;;;;4.03;3.63;;;11.30;99.90;;;;;;4989664;28;20480;-67
2023/03/14 02:25:02;;;;;;;7.53;3.03;;;11.30;99.90;;;;;;4990909;28;20850;-67
2023/03/14 02:27:32;;;;;;;4.97;3.73;;;11.20;99.90;;;;;;4991288;28;20462;-67
2023/03/14 02:30:03;;;;;;;5.87;3.90;;;11.20;99.90;;;;;;4990050;28;21005;-67
2023/03/14 02:32:34;;;;;;;5.27;3.30;;;11.20;99.90;;;;;;4988447;28;20828;-67
2023/03/14 02:35:07;;;;;;;5.80;3.40;;;11.20;99.90;;;;;;4990591;28;20564;-67
2023/03/14 02:37:41;;;;;;;8.40;3.80;;;11.10;99.90;;;;;;4990704;28;20501;-67
2023/03/14 02:40:10;;;;;;;6.13;4.20;;;11.10;99.90;;;;;;4990862;28;20500;-67
2023/03/14 02:42:40;;;;;;;6.57;3.97;;;11.10;99.90;;;;;;4990530;28;20492;-67
2023/03/14 02:45:39;;;;;;;5.67;3.37;;;11.10;99.90;;;;;;4991375;28;20462;-67
2023/03/14 02:48:11;;;;;;;5.50;4.17;;;11.00;99.90;;;;;;4993587;28;20541;-67
2023/03/14 02:50:40;;;;;;;5.50;3.93;;;11.00;99.90;;;;;;4990539;28;20477;-67
2023/03/14 02:53:08;;;;;;;4.67;3.43;;;11.00;99.90;;;;;;4992371;28;20587;-68
2023/03/14 02:55:36;;;;;;;5.10;4.33;;;11.00;99.90;;;;;;4991486;28;20484;-68
2023/03/14 02:58:05;;;;;;;4.53;4.13;;;11.00;99.90;;;;;;4991984;28;20594;-68
2023/03/14 03:00:35;;;;;;;5.50;4.40;;;11.00;99.90;;;;;;4990197;28;20512;-68
2023/03/14 03:03:05;;;;;;;4.07;3.67;;;11.00;99.90;;;;;;4992140;28;20479;-68
2023/03/14 03:05:35;;;;;;;4.13;3.63;;;11.00;99.90;;;;;;4993585;28;20569;-68
2023/03/14 03:08:03;;;;;;;5.53;4.47;;;11.00;99.90;;;;;;4992998;28;20480;-68
2023/03/14 03:10:31;;;;;;;6.07;3.70;;;11.00;99.90;;;;;;4990385;28;20555;-68
2023/03/14 03:12:59;;;;;;;7.40;4.20;;;11.00;99.90;;;;;;4993292;28;20540;-68
2023/03/14 03:15:29;;;;;;;4.93;3.97;;;11.10;99.90;;;;;;4992929;28;20456;-68
2023/03/14 03:17:57;;;;;;;6.87;3.87;;;11.10;99.90;;;;;;4991679;28;20504;-68
2023/03/14 03:20:25;;;;;;;6.97;4.43;;;11.20;99.90;;;;;;4989677;28;20489;-67
2023/03/14 03:22:53;;;;;;;7.73;4.00;;;11.20;99.90;;;;;;4991944;28;20499;-68
2023/03/14 03:25:21;;;;;;;4.67;4.27;;;11.20;99.90;;;;;;4990404;28;20489;-68
2023/03/14 03:27:49;;;;;;;6.47;4.40;;;11.20;99.90;;;;;;4990413;28;20475;-68
2023/03/14 03:30:17;;;;;;;5.57;4.23;;;11.20;99.90;;;;;;4990846;28;20492;-67
2023/03/14 03:32:47;;;;;;;5.57;4.40;;;11.20;99.90;;;;;;4989498;28;20485;-67
2023/03/14 03:35:15;;;;;;;7.67;4.00;;;11.20;99.90;;;;;;4992011;28;20499;-68
2023/03/14 03:37:43;;;;;;;5.83;4.00;;;11.30;99.90;;;;;;4988196;28;20473;-68
2023/03/14 03:40:11;;;;;;;9.23;5.40;;;11.30;99.90;;;;;;4991452;28;20991;-68
2023/03/14 03:42:40;;;;;;;5.47;3.80;;;11.30;99.90;;;;;;4988023;28;20477;-68
2023/03/14 03:45:09;;;;;;;4.23;3.77;;;11.30;99.90;;;;;;4990703;28;20476;-68
2023/03/14 03:47:37;;;;;;;4.17;3.60;;;11.30;99.90;;;;;;4988190;28;20846;-68
2023/03/14 03:50:07;;;;;;;4.00;3.60;;;11.30;99.90;;;;;;4990809;28;20488;-68
2023/03/14 03:52:35;;;;;;;4.93;4.07;;;11.30;99.90;;;;;;4989447;28;20484;-68
2023/03/14 03:55:03;;;;;;;4.77;3.70;;;11.30;99.90;;;;;;4990422;28;20474;-68
2023/03/14 03:57:32;;;;;;;4.03;3.63;;;11.30;99.90;;;;;;4988087;28;20531;-68
2023/03/14 04:00:00;;;;;;;6.23;3.87;;;11.30;99.90;;;;;;4991878;28;20509;-68
2023/03/14 04:02:28;;;;;;;5.40;3.70;;;11.30;99.90;;;;;;4990513;28;20511;-68
2023/03/14 04:04:56;;;;;;;7.10;3.50;;;11.30;99.90;;;;;;4990035;28;20484;-68
2023/03/14 04:07:26;;;;;;;5.20;4.10;;;11.30;99.90;;;;;;4990399;28;20477;-68
2023/03/14 04:09:54;;;;;;;6.73;3.90;;;11.30;99.90;;;;;;4989990;28;20497;-68
2023/03/14 04:12:22;;;;;;;5.33;3.80;;;11.30;99.90;;;;;;4989370;28;20473;-68
2023/03/14 04:14:50;;;;;;;5.83;3.60;;;11.30;99.90;;;;;;4990579;28;21021;-68
2023/03/14 04:17:17;;;;;;;6.13;3.77;;;11.30;99.90;;;;;;4986342;28;20474;-67
2023/03/14 04:19:49;;;;;;;6.50;3.63;;;11.30;99.90;;;;;;4990521;28;20525;-68
2023/03/14 04:22:17;;;;;;;6.73;3.80;;;11.30;99.90;;;;;;4990165;28;20509;-68
2023/03/14 04:24:46;;;;;;;4.63;3.73;;;11.30;99.90;;;;;;4989068;28;20477;-68
2023/03/14 04:27:15;;;;;;;5.40;4.20;;;11.20;99.90;;;;;;4991261;28;20975;-68
2023/03/14 04:29:43;;;;;;;6.10;3.67;;;11.20;99.90;;;;;;4988889;28;20500;-68
2023/03/14 04:32:11;;;;;;;4.50;3.50;;;11.20;99.90;;;;;;4989397;28;20497;-68
2023/03/14 04:34:39;;;;;;;4.80;3.97;;;11.20;99.90;;;;;;4982731;28;20472;-67
2023/03/14 04:37:07;;;;;;;4.10;3.70;;;11.20;99.90;;;;;;4991292;28;21134;-68
2023/03/14 04:39:35;;;;;;;8.27;4.00;;;11.20;99.90;;;;;;4988141;28;20497;-68
2023/03/14 04:42:05;;;;;;;5.73;4.23;;;11.20;99.90;;;;;;4989078;28;20498;-68
2023/03/14 04:44:33;;;;;;;4.90;3.80;;;11.10;99.90;;;;;;4990282;28;20465;-68
2023/03/14 04:47:01;;;;;;;4.80;4.00;;;11.20;99.90;;;;;;4990675;28;20481;-68
2023/03/14 04:49:29;;;;;;;4.37;3.97;;;11.20;99.90;;;;;;4989686;28;20876;-68
2023/03/14 04:51:57;;;;;;;6.90;4.20;;;11.20;99.90;;;;;;4990481;28;21024;-68
2023/03/14 04:54:25;;;;;;;6.20;3.90;;;11.20;99.90;;;;;;4988604;28;20462;-68
2023/03/14 04:56:53;;;;;;;7.77;4.80;;;11.20;99.90;;;;;;4989752;28;20962;-68
2023/03/14 04:59:22;;;;;;;4.80;4.40;;;11.20;99.90;;;;;;4988838;28;20992;-68
2023/03/14 05:01:50;;;;;;;4.97;4.43;;;11.20;99.90;;;;;;4989346;28;20486;-68
2023/03/14 05:04:18;;;;;;;4.10;3.70;;;11.20;99.90;;;;;;4980765;28;20470;-68
2023/03/14 05:06:46;;;;;;;3.90;2.43;;;11.20;99.90;;;;;;4988748;28;20476;-68
2023/03/14 05:09:15;;;;;;;4.13;2.30;;;11.20;99.90;;;;;;4984935;28;20508;-68
2023/03/14 05:11:43;;;;;;;2.70;2.20;;;11.20;99.90;;;;;;4984964;28;20488;-68
2023/03/14 05:14:11;;;;;;;3.50;2.27;;;11.10;99.90;;;;;;4988385;28;20469;-68
2023/03/14 05:16:40;;;;;;;9.10;2.73;;;11.10;99.90;;;;;;4989668;28;20473;-68
2023/03/14 05:19:08;;;;;;;3.50;2.30;;;11.00;99.90;;;;;;4986130;28;20563;-68
2023/03/14 05:21:36;;;;;;;3.17;2.40;;;11.00;99.90;;;;;;4983239;28;20490;-68
2023/03/14 05:24:04;;;;;;;3.37;2.40;;;10.90;99.90;;;;;;4984433;28;20974;-68
2023/03/14 05:26:32;;;;;;;2.63;2.43;;;10.80;99.90;;;;;;4985173;28;20616;-68
2023/03/14 05:29:00;;;;;;;2.80;2.53;;;10.60;99.90;;;;;;4984067;28;20546;-68
2023/03/14 05:31:28;;;;;;;2.97;2.67;;;10.50;99.90;;;;;;4985543;28;20504;-68
2023/03/14 05:33:57;;;;;;;3.10;2.63;;;10.50;99.90;;;;;;4985290;28;20476;-68
2023/03/14 05:36:25;;;;;;;2.67;2.20;;;10.30;99.90;;;;;;4985537;28;20484;-68
2023/03/14 05:38:53;;;;;;;4.87;2.70;;;10.30;99.90;;;;;;4985637;28;20503;-68
2023/03/14 05:41:21;;;;;;;3.03;2.60;;;10.30;99.90;;;;;;4983901;28;20490;-68
2023/03/14 05:43:49;;;;;;;4.00;2.80;;;10.20;99.90;;;;;;4986101;28;20499;-68
2023/03/14 05:46:17;;;;;;;3.93;3.10;;;10.20;99.90;;;;;;4985395;28;20553;-67
2023/03/14 05:48:45;;;;;;;4.30;3.67;;;10.20;99.90;;;;;;4985774;28;20502;-68
2023/03/14 05:51:15;;;;;;;3.73;3.43;;;10.20;99.90;;;;;;4986570;28;20961;-68
2023/03/14 05:53:43;;;;;;;4.10;3.50;;;10.10;99.90;;;;;;4985315;28;20874;-68
2023/03/14 05:56:11;;;;;;;4.70;3.53;;;10.10;99.90;;;;;;4986852;28;20965;-67
2023/03/14 05:58:39;;;;;;;4.37;3.20;;;10.10;99.90;;;;;;4986282;28;20473;-68
2023/03/14 06:01:08;;;;;;;4.00;3.70;;;10.10;99.90;;;;;;4986151;28;20482;-67
2023/03/14 06:03:36;;;;;;;4.60;3.77;;;10.10;99.90;;;;;;4987205;28;20850;-68
2023/03/14 06:06:04;;;;;;;5.50;4.10;;;10.10;99.90;;;;;;4984092;28;20951;-68
2023/03/14 06:08:34;;;;;;;4.80;4.40;;;10.10;99.90;;;;;;4984761;28;20469;-67
2023/03/14 06:11:04;;;;;;;5.80;4.73;;;10.10;99.90;;;;;;4980185;28;20485;-68
2023/03/14 06:13:32;;;;;;;7.40;4.87;;;10.10;99.90;;;;;;4985521;28;20466;-68
2023/03/14 06:16:00;;;;;;;6.20;5.17;;;10.10;99.90;;;;;;4980612;28;21089;-68
2023/03/14 06:18:28;;;;;;;7.77;5.60;;;10.10;99.90;;;;;;4985066;28;20836;-68
2023/03/14 06:20:57;;;;;;;5.23;4.80;;;10.10;99.90;;;;;;4982686;28;20485;-68
2023/03/14 06:23:25;;;;;;;9.03;6.00;;;10.10;99.90;;;;;;4982738;28;20486;-68
2023/03/14 06:25:54;;;;;;;8.60;6.30;;;10.10;99.90;;;;;;4981643;28;20473;-68
2023/03/14 06:28:22;;;;;;;6.20;5.53;;;10.10;99.90;;;;;;4983820;28;20468;-68
2023/03/14 06:30:52;;;;;;;6.50;5.90;;;10.10;99.90;;;;;;4981640;28;20559;-67
2023/03/14 06:33:20;;;;;;;6.93;6.07;;;10.10;99.90;;;;;;4981350;28;20470;-68
2023/03/14 06:35:48;;;;;;;7.57;5.80;;;10.10;99.90;;;;;;4982609;28;20539;-68
2023/03/14 06:38:17;;;;;;;7.10;5.53;;;10.10;99.90;;;;;;4980388;28;20474;-68
2023/03/14 06:40:44;;;;;;;7.53;5.40;;;10.10;99.90;;;;;;4983552;28;20484;-67
2023/03/14 06:43:14;;;;;;;8.03;6.03;;;10.10;99.90;;;;;;4981367;28;20484;-68
2023/03/14 06:45:42;;;;;;;7.20;6.30;;;10.10;99.90;;;;;;4984605;28;20469;-67
2023/03/14 06:48:10;;;;;;;8.10;5.70;;;10.10;99.90;;;;;;4978047;28;21012;-67
2023/03/14 06:50:38;;;;;;;6.33;5.57;;;10.10;99.90;;;;;;4977048;28;20493;-67
2023/03/14 06:53:05;;;;;;;7.93;6.03;;;10.10;99.90;;;;;;4982892;28;20478;-67
2023/03/14 06:55:33;;;;;;;7.17;6.47;;;10.10;99.90;;;;;;4982012;28;20925;-67
2023/03/14 06:58:01;;;;;;;6.30;5.73;;;10.10;99.90;;;;;;4981457;28;20474;-67
2023/03/14 07:00:31;;;;;;;7.07;4.90;;;10.10;99.90;;;;;;4982704;28;20497;-66
2023/03/14 07:02:59;;;;;;;6.07;5.57;;;10.10;99.90;;;;;;4981782;28;20555;-67
2023/03/14 07:05:27;;;;;;;7.47;5.90;;;10.10;99.90;;;;;;4982372;28;20485;-67
2023/03/14 07:07:55;;;;;;;6.17;5.20;;;10.10;99.90;;;;;;4986653;28;20476;-68
2023/03/14 07:10:23;;;;;;;6.40;4.67;;;10.20;99.90;;;;;;4983724;28;20488;-68
2023/03/14 07:12:52;;;;;;;6.97;4.30;;;10.10;99.90;;;;;;4986401;28;20473;-68
2023/03/14 07:15:20;;;;;;;6.20;4.33;;;10.10;99.90;;;;;;4985469;28;20980;-67
2023/03/14 07:17:50;;;;;;;5.43;4.90;;;10.10;99.90;;;;;;4985942;28;20476;-67
2023/03/14 07:20:18;;;;;;;6.73;3.37;;;10.20;99.90;;;;;;4985546;28;20493;-67
2023/03/14 07:22:49;;;;;;;6.17;3.60;;;10.20;99.90;;;;;;4985360;28;20498;-67
2023/03/14 07:25:17;;;;;;;6.97;3.70;;;10.20;99.90;;;;;;4986946;28;20963;-68
2023/03/14 07:27:45;;;;;;;6.10;3.10;;;10.20;99.90;;;;;;4986646;28;20504;-68
2023/03/14 07:30:14;;;;;;;3.93;2.90;;;10.20;99.90;;;;;;4985087;28;20494;-68
2023/03/14 07:32:42;;;;;;;6.60;2.97;;;10.20;99.90;;;;;;4985644;28;20580;-68
2023/03/14 07:35:12;;;;;;;3.20;2.80;;;10.20;99.90;;;;;;4988018;28;20935;-68
2023/03/14 07:37:40;;;;;;;4.37;2.90;;;10.20;99.90;;;;;;4980730;28;20489;-68
2023/03/14 07:40:10;;;;;;;6.40;2.60;;;10.20;99.90;;;;;;4985970;28;20502;-68
2023/03/14 07:42:38;;;;;;;3.90;2.87;;;10.20;99.90;;;;;;4968631;28;20505;-68
2023/03/14 07:45:07;;;;;;;4.70;3.17;;;10.20;99.90;;;;;;4986131;28;20473;-68
2023/03/14 07:47:36;;;;;;;5.10;3.67;;;10.20;99.90;;;;;;4982733;28;20485;-68
2023/03/14 07:50:05;;;;;;;3.90;3.50;;;10.20;99.90;;;;;;4984282;28;20496;-68
2023/03/14 07:52:34;;;;;;;4.53;3.47;;;10.20;99.90;;;;;;4985326;28;20492;-68
2023/03/14 07:55:02;;;;;;;5.77;3.73;;;10.20;99.90;;;;;;4984792;28;20478;-68
2023/03/14 07:57:30;;;;;;;5.57;3.80;;;10.20;99.90;;;;;;4983104;28;20870;-68
2023/03/14 07:59:58;;;;;;;4.77;3.43;;;10.10;99.90;;;;;;4985880;28;20484;-68
2023/03/14 08:02:26;;;;;;;4.93;2.90;;;10.10;99.90;;;;;;4982586;28;20490;-68
2023/03/14 08:04:54;;;;;;;3.10;2.90;;;10.10;99.90;;;;;;4986316;28;20560;-68
2023/03/14 08:07:22;;;;;;;7.43;2.47;;;10.10;99.90;;;;;;4984135;28;20489;-68
2023/03/14 08:09:52;;;;;;;3.40;2.40;;;10.20;99.90;;;;;;4985920;28;20497;-67
2023/03/14 08:12:20;;;;;;;3.87;2.60;;;10.20;99.90;;;;;;4985318;28;20477;-68
2023/03/14 08:14:48;;;;;;;3.80;2.60;;;10.20;99.90;;;;;;4985279;28;20476;-68
2023/03/14 08:17:16;;;;;;;3.40;1.93;;;10.20;99.90;;;;;;4984281;28;20499;-68
2023/03/14 08:19:43;;;;;;;2.27;1.80;;;10.30;99.90;;;;;;4984607;28;20507;-67
2023/03/14 08:22:12;;;;;;;3.43;2.57;;;10.30;99.90;;;;;;4984206;28;20477;-68
2023/03/14 08:24:40;;;;;;;4.47;2.53;;;10.40;99.90;;;;;;4986036;28;20491;-68
2023/03/14 08:27:10;;;;;;;2.97;2.40;;;10.50;99.90;;;;;;4983953;28;20473;-68
2023/03/14 08:29:38;;;;;;;3.33;2.20;;;10.50;99.90;;;;;;4986213;28;20500;-68
2023/03/14 08:32:06;;;;;;;3.80;2.50;;;10.50;99.90;;;;;;4985097;28;21033;-68
2023/03/14 08:34:34;;;;;;;2.87;2.40;;;10.50;99.90;;;;;;4983132;28;20478;-68
2023/03/14 08:37:02;;;;;;;4.50;2.50;;;10.50;99.90;;;;;;4985735;28;20773;-68
2023/03/14 08:39:37;;;;;;;4.37;2.60;;;10.60;99.90;;;;;;4985513;28;20489;-68
2023/03/14 08:42:05;;;;;;;2.40;2.20;;;10.60;99.90;;;;;;4985546;28;20486;-68
2023/03/14 08:44:35;;;;;;;4.77;2.23;;;10.60;99.90;;;;;;4983266;28;20484;-68
2023/03/14 08:47:03;;;;;;;6.83;2.90;;;10.60;99.90;;;;;;4984765;28;20552;-68
2023/03/14 08:49:31;;;;;;;3.27;2.90;;;10.60;99.90;;;;;;4983818;28;20493;-68
2023/03/14 08:51:59;;;;;;;3.40;2.83;;;10.60;99.90;;;;;;4982842;28;20488;-68
2023/03/14 08:54:27;;;;;;;4.90;3.27;;;10.60;99.90;;;;;;4985918;28;20477;-68
2023/03/14 08:56:55;;;;;;;5.10;3.80;;;10.60;99.90;;;;;;4985137;28;21025;-68
2023/03/14 08:59:23;;;;;;;4.43;3.00;;;10.60;99.90;;;;;;4982941;28;20500;-68
2023/03/14 09:01:54;;;;;;;4.77;3.40;;;10.60;99.90;;;;;;4983134;28;20501;-68
2023/03/14 09:04:22;;;;;;;3.90;3.60;;;10.60;99.90;;;;;;4985416;28;20469;-68
2023/03/14 09:06:50;;;;;;;3.60;3.40;;;10.60;99.90;;;;;;4983352;28;20478;-68
2023/03/14 09:09:18;;;;;;;4.70;4.17;;;10.60;99.90;;;;;;4984544;28;20482;-68
2023/03/14 09:11:46;;;;;;;9.53;4.30;;;10.60;99.90;;;;;;4983438;28;20473;-68
2023/03/14 09:14:14;;;;;;;5.67;4.23;;;10.60;99.90;;;;;;4984931;28;20465;-68
2023/03/14 09:16:42;;;;;;;6.60;4.40;;;10.60;99.90;;;;;;4984289;28;20482;-68
2023/03/14 09:19:12;;;;;;;6.33;4.33;;;10.50;99.90;;;;;;4983198;28;20548;-68
2023/03/14 09:21:40;;;;;;;8.50;4.50;;;10.50;99.90;;;;;;4993809;28;20494;-68
2023/03/14 09:24:08;;;;;;;7.00;4.53;;;10.60;99.90;;;;;;5003030;28;20993;-68
2023/03/14 09:26:36;;;;;;;7.03;4.20;;;10.60;99.90;;;;;;5001801;28;20862;-68
2023/03/14 09:29:04;;;;;;;5.37;4.60;;;10.60;99.90;;;;;;5003191;28;20496;-68
2023/03/14 09:31:32;;;;;;;6.37;4.63;;;10.60;99.90;;;;;;5003034;28;20481;-68
2023/03/14 09:34:00;;;;;;;5.63;4.13;;;10.60;99.90;;;;;;5002649;28;20844;-68
2023/03/14 09:36:32;;;;;;;5.77;4.90;;;10.50;99.90;;;;;;5003060;28;20479;-68
2023/03/14 09:39:00;;;;;;;6.07;4.70;;;10.50;99.90;;;;;;5002900;28;20497;-69
2023/03/14 09:41:31;;;;;;;6.57;4.40;;;10.50;99.90;;;;;;5002508;28;21035;-68
2023/03/14 09:44:06;;;;;;;6.67;4.80;;;10.60;99.90;;;;;;5003268;28;20464;-68
2023/03/14 09:46:37;;;;;;;5.33;4.40;;;10.60;99.90;;;;;;5004006;28;20483;-68
2023/03/14 09:49:12;;;;;;;6.70;4.27;;;10.60;99.90;;;;;;5004483;28;20487;-68
2023/03/14 09:51:43;;;;;;;4.83;4.03;;;10.70;99.90;;;;;;4997344;28;20516;-69
2023/03/14 09:54:27;;;;;;;6.20;2.90;;;10.70;99.90;;;;;;5002296;28;20468;-68
2023/03/14 09:56:55;;;;;;;2.87;1.60;;;10.60;99.90;;;;;;5002866;28;20475;-68
2023/03/14 09:59:23;;;;;;;2.50;1.10;;;10.40;99.90;;;;;;4998948;28;20484;-68
2023/03/14 10:01:52;;;;;;;1.20;1.10;;;10.30;99.90;;;;;;5002173;28;20488;-68
2023/03/14 10:04:23;;;;;;;4.07;1.13;;;10.10;99.90;;;;;;5001044;28;20473;-68
2023/03/14 10:06:53;;;;;;;1.10;1.00;;;9.90;99.90;;;;;;5002333;28;20468;-68
2023/03/14 10:09:25;;;;;;;1.97;1.20;;;9.70;99.90;;;;;;5000783;28;21016;-68
2023/03/14 10:11:56;;;;;;;2.90;1.70;;;9.50;99.90;;;;;;5002071;28;20476;-69
2023/03/14 10:14:33;;;;;;;2.03;1.27;;;9.30;99.90;;;;;;5002149;28;20472;-68
2023/03/14 10:17:09;;;;;;;2.40;1.30;;;9.20;99.90;;;;;;5003371;28;20479;-68
2023/03/14 10:19:38;;;;;;;2.27;1.37;;;9.00;99.90;;;;;;5003795;28;20624;-68
2023/03/14 10:22:15;;;;;;;0.93;0.90;;;8.90;99.90;;;;;;4999543;28;20500;-68
2023/03/14 10:24:52;;;;;;;0.97;0.93;;;8.80;99.90;;;;;;5001363;28;20471;-68
2023/03/14 10:27:22;;;;;;;1.07;1.00;;;8.60;99.90;;;;;;5002615;28;20476;-68
2023/03/14 10:29:55;;;;;;;3.33;1.10;;;8.50;99.90;;;;;;5002924;28;21020;-68
2023/03/14 10:32:33;;;;;;;1.83;0.90;;;8.30;99.90;;;;;;5001330;28;20531;-68
2023/03/14 10:35:08;;;;;;;0.63;0.60;;;8.10;99.90;;;;;;5002888;28;20556;-68
2023/03/14 10:37:50;;;;;;;0.50;0.50;;;7.90;99.90;;;;;;5001623;28;20477;-69
2023/03/14 10:40:20;;;;;;;0.73;0.60;;;7.70;99.90;;;;;;5003029;28;20480;-68
2023/03/14 10:42:50;;;;;;;1.23;0.60;;;7.50;99.90;;;;;;5005174;28;20508;-68
2023/03/14 10:45:32;;;;;;;1.17;0.67;;;7.40;99.90;;;;;;5006660;28;20474;-68
2023/03/14 10:48:07;;;;;;;1.13;0.73;;;7.20;99.90;;;;;;5006413;28;20479;-68
2023/03/14 10:50:35;;;;;;;0.80;0.50;;;7.10;99.90;;;;;;5004843;28;20500;-68
2023/03/14 10:53:06;;;;;;;1.37;0.50;;;6.90;99.90;;;;;;5007057;28;20460;-68
2023/03/14 10:55:42;;;;;;;1.63;0.70;;;6.70;99.90;;;;;;5006372;28;20828;-68
2023/03/14 10:58:21;;;;;;;0.70;0.63;;;6.60;99.90;;;;;;5007162;28;20468;-68
2023/03/14 11:00:58;;;;;;;2.60;0.70;;;6.50;99.90;;;;;;5005855;28;21021;-68
2023/03/14 11:03:30;;;;;;;0.80;0.70;;;6.50;99.90;;;;;;5006483;28;20489;-68
2023/03/14 11:06:04;;;;;;;0.90;0.50;;;6.40;99.90;;;;;;5005602;28;20861;-68
2023/03/14 11:08:41;;;;;;;0.63;0.60;;;6.30;99.90;;;;;;5006913;28;20475;-68
2023/03/14 11:11:17;;;;;;;1.43;0.90;;;6.30;99.90;;;;;;5004765;28;20555;-68
2023/03/14 11:13:55;;;;;;;0.97;0.70;;;6.20;99.90;;;;;;5005293;28;20465;-68
2023/03/14 11:16:31;;;;;;;0.73;0.70;;;6.20;99.90;;;;;;5005388;28;20488;-67
2023/03/14 11:19:20;;;;;;;1.53;0.50;;;6.10;99.90;;;;;;5006454;28;20502;-68
2023/03/14 11:21:55;;;;;;;2.27;0.60;;;6.10;99.90;;;;;;5006124;28;20484;-68
2023/03/14 11:24:45;;;;;;;0.90;0.70;;;6.00;99.90;;;;;;5006786;28;20475;-68
2023/03/14 11:27:19;;;;;;;1.40;0.80;;;5.90;99.90;;;;;;5008450;28;20465;-68
2023/03/14 11:29:55;;;;;;;2.03;0.60;;;5.80;99.90;;;;;;5007564;28;20511;-69
2023/03/14 11:32:37;;;;;;;1.47;0.80;;;5.70;99.90;;;;;;5006799;28;20471;-68
2023/03/14 11:35:17;;;;;;;0.80;0.60;;;5.70;99.90;;;;;;5007120;28;20465;-68
2023/03/14 11:37:52;;;;;;;1.10;0.90;;;5.60;99.90;;;;;;5007023;28;20481;-68
2023/03/14 11:40:24;;;;;;;2.70;1.13;;;5.60;99.90;;;;;;5005497;28;20626;-69
2023/03/14 11:43:00;;;;;;;4.60;1.20;;;5.60;99.90;;;;;;5006090;28;20494;-69
2023/03/14 11:45:35;;;;;;;1.67;0.90;;;5.60;99.90;;;;;;5004591;28;20575;-69
2023/03/14 11:48:19;;;;;;;0.87;0.80;;;5.60;99.90;;;;;;5007204;28;20483;-69
2023/03/14 11:50:50;;;;;;;1.83;1.10;;;5.70;99.90;;;;;;5002439;28;20495;-69
2023/03/14 11:53:23;;;;;;;2.50;0.80;;;5.70;99.90;;;;;;5004783;28;20465;-69
2023/03/14 11:55:53;;;;;;;2.27;1.23;;;5.80;99.90;;;;;;5006169;28;20485;-69
2023/03/14 11:58:26;;;;;;;2.47;1.20;;;5.90;99.90;;;;;;5006101;28;21091;-69
2023/03/14 12:00:57;;;;;;;4.33;1.40;;;6.00;99.90;;;;;;5005211;28;20489;-69
2023/03/14 12:03:33;;;;;;;2.43;1.13;;;5.90;99.90;;;;;;5006400;28;20502;-69
2023/03/14 12:06:11;;;;;;;2.63;1.20;;;5.90;99.90;;;;;;5004750;28;21133;-69
2023/03/14 12:08:49;;;;;;;3.43;1.20;;;5.90;99.90;;;;;;5004894;28;20476;-69
2023/03/14 12:11:25;;;;;;;3.67;0.90;;;6.00;99.90;;;;;;5003394;28;20877;-69
2023/03/14 12:13:54;;;;;;;6.57;1.63;;;6.00;99.90;;;;;;5007723;28;20865;-69
2023/03/14 12:16:35;;;;;;;4.53;1.30;;;6.10;99.90;;;;;;5003964;28;20476;-69
2023/03/14 12:19:36;;;;;;;5.97;1.20;;;6.00;99.90;;;;;;5007818;28;21048;-69
2023/03/14 12:22:18;;;;;;;1.93;0.90;;;6.10;99.90;;;;;;5005899;28;20476;-69
2023/03/14 12:24:50;;;;;;;4.03;1.70;;;6.10;99.90;;;;;;5005434;28;20467;-69
2023/03/14 12:27:45;;;;;;;2.27;1.10;;;6.10;99.90;;;;;;5005887;28;20473;-69
2023/03/14 12:30:32;;;;;;;5.43;1.40;;;6.00;99.90;;;;;;4999672;28;20488;-69
2023/03/14 12:33:34;;;;;;;4.03;1.10;;;6.00;99.90;;;;;;4989496;28;20481;-70
2023/03/14 12:36:32;;;;;;;4.53;1.63;;;6.00;99.90;;;;;;4996242;28;20478;-69
2023/03/14 12:39:14;;;;;;;3.60;1.40;;;6.10;99.90;;;;;;5001176;28;20492;-69
2023/03/14 12:41:45;;;;;;;4.23;1.30;;;6.10;99.90;;;;;;4999446;28;21099;-69
2023/03/14 12:44:45;;;;;;;5.17;1.37;;;6.10;99.90;;;;;;5002440;28;21277;-69
2023/03/14 12:47:46;;;;;;;4.50;1.47;;;6.10;99.90;;;;;;4997840;28;20473;-69
2023/03/14 12:50:20;;;;;;;5.07;1.50;;;6.00;99.90;;;;;;4996540;28;20521;-70
2023/03/14 12:53:11;;;;;;;6.80;2.03;;;6.10;99.90;;;;;;4985150;28;20480;-71
2023/03/14 12:55:47;;;;;;;4.20;1.60;;;6.10;99.90;;;;;;4978656;28;20472;-70
2023/03/14 12:58:24;;;;;;;6.17;1.90;;;6.10;99.90;;;;;;4988677;28;20481;-70
2023/03/14 13:00:57;;;;;;;7.87;2.67;;;6.10;99.90;;;;;;4997916;28;20503;-69
2023/03/14 13:03:28;;;;;;;3.40;1.50;;;6.10;99.90;;;;;;5001181;28;20539;-69
2023/03/14 13:05:58;;;;;;;4.80;1.77;;;6.10;99.90;;;;;;5003920;28;23208;-69